Rawalakot Weather



Rawalakot's Current Weather

Temprature 20o few clouds

few clouds

Rain: 0 %

Min Temprature20o
Max Temprature20o
Humidity42
Wind Speed5.1 m/h
Sun Rise06:40:53
Sun Set17:56:11
Current Time: 23-Feb-2019 16:42:49
Lat/Lon: 33.86, 73.76




Rawalakot's Geo Location




Rawalakot's Weather Forecast

Time Overall Temp Min Temp Max Temp Humidity Wind Speed Rain
23-Feb-2019 (Sat)
17:00:00 scattered clouds 17.540 13.049 17.540 78 1.01 m/h 0 %
20:00:00 broken clouds 10.130 6.759 10.130 93 0.62 m/h 0 %
23:00:00 broken clouds 6.680 4.440 6.680 87 1.07 m/h 0 %
24-Feb-2019 (Sun)
02:00:00 scattered clouds 4.680 3.560 4.680 82 1.41 m/h 0 %
05:00:00 few clouds 3.317 3.317 3.317 81 1.61 m/h 0 %
08:00:00 clear sky 5.428 5.428 5.428 76 1.66 m/h 0 %
11:00:00 clear sky 13.449 13.449 13.449 77 1.36 m/h 0 %
14:00:00 clear sky 14.006 14.006 14.006 73 1.32 m/h 0 %
17:00:00 clear sky 12.421 12.421 12.421 74 0.95 m/h 0 %
20:00:00 few clouds 5.493 5.493 5.493 90 0.26 m/h 0 %
23:00:00 few clouds 3.436 3.436 3.436 84 1.36 m/h 0 %
25-Feb-2019 (Mon)
02:00:00 few clouds 3.030 3.030 3.030 81 1.62 m/h 0 %
05:00:00 broken clouds 3.727 3.727 3.727 77 1.61 m/h 0 %
08:00:00 broken clouds 5.620 5.620 5.620 85 1.07 m/h 0 %
11:00:00 light rain 11.597 11.597 11.597 80 0.96 m/h 5 %
14:00:00 light rain 8.923 8.923 8.923 98 1.57 m/h 128 %
17:00:00 light rain 7.362 7.362 7.362 100 1.61 m/h 108 %
20:00:00 moderate rain 5.723 5.723 5.723 99 0.96 m/h 313 %
23:00:00 moderate rain 5.017 5.017 5.017 100 0.71 m/h 362 %
26-Feb-2019 (Tue)
02:00:00 moderate rain 4.801 4.801 4.801 100 1.11 m/h 566 %
05:00:00 moderate rain 3.547 3.547 3.547 100 1.21 m/h 366 %
08:00:00 light rain 4.282 4.282 4.282 100 1.22 m/h 23 %
11:00:00 light rain 8.317 8.317 8.317 99 1.42 m/h 13 %
14:00:00 broken clouds 10.746 10.746 10.746 91 1.41 m/h 0 %
17:00:00 light rain 8.064 8.064 8.064 100 1.01 m/h 130 %
20:00:00 light rain 5.061 5.061 5.061 100 0.77 m/h 2 %
23:00:00 light rain 4.373 4.373 4.373 100 0.97 m/h 23 %
27-Feb-2019 (Wed)
02:00:00 light rain 4.281 4.281 4.281 100 0.96 m/h 32 %
05:00:00 light rain 3.593 3.593 3.593 100 1 m/h 44 %
08:00:00 light rain 5.065 5.065 5.065 100 1.07 m/h 1 %
11:00:00 light rain 7.645 7.645 7.645 100 1.41 m/h 5 %
14:00:00 light rain 6.561 6.561 6.561 100 1.4 m/h 172 %
17:00:00 light rain 6.623 6.623 6.623 100 1.36 m/h 23 %
20:00:00 clear sky 2.017 2.017 2.017 100 1.17 m/h 0 %
23:00:00 few clouds 0.591 0.591 0.591 88 1.97 m/h 0 %
28-Feb-2019 (Thu)
02:00:00 scattered clouds 0.791 0.791 0.791 87 1.76 m/h 0 %
05:00:00 scattered clouds 0.163 0.163 0.163 84 2.06 m/h 0 %
08:00:00 scattered clouds 2.315 2.315 2.315 86 1.51 m/h 0 %
11:00:00 overcast clouds 7.222 7.222 7.222 90 1.41 m/h 0 %
14:00:00 overcast clouds 10.229 10.229 10.229 87 1.22 m/h 0 %

Famous Cities (60)